Time;durP1;ratioP1;P1;durP2;ratioP2;P2;SDS_P1;SDS_P2;PMS_P1;PMS_P2;Temp;Humidity;BMP_temperature;BMP_pressure;BME280_temperature;BME280_humidity;BME280_pressure;Samples;Min_cycle;Max_cycle;Signal;HPM_P1;HPM_P2
2023/03/28 00:01:41;;;;;;;5.40;1.45;;;;;;;4.12;59.83;101637.47;4197404;28;20446;-67
2023/03/28 00:03:44;;;;;;;5.38;1.73;;;;;;;4.07;59.89;101638.84;4196795;28;20037;-67
2023/03/28 00:05:49;;;;;;;4.00;1.27;;;;;;;4.07;59.99;101644.00;4197912;28;20036;-67
2023/03/28 00:07:52;;;;;;;6.93;1.67;;;;;;;4.05;60.57;101643.03;4195421;28;20402;-67
2023/03/28 00:09:56;;;;;;;3.83;1.50;;;;;;;4.02;60.85;101654.03;4197017;28;20635;-67
2023/03/28 00:11:59;;;;;;;5.07;1.70;;;;;;;4.01;60.29;101651.38;4196846;28;20063;-67
2023/03/28 00:14:04;;;;;;;2.97;1.30;;;;;;;3.94;60.80;101650.13;4179215;28;20091;-67
2023/03/28 00:16:11;;;;;;;4.47;1.58;;;;;;;3.92;60.74;101651.69;4197786;28;20040;-67
2023/03/28 00:18:14;;;;;;;1.52;1.13;;;;;;;3.93;60.40;101650.91;4177904;28;20481;-67
2023/03/28 00:20:17;;;;;;;4.80;1.40;;;;;;;3.88;60.28;101657.44;4193840;28;20043;-66
2023/03/28 00:22:20;;;;;;;6.07;1.42;;;;;;;3.89;60.23;101656.66;4178438;28;20033;-67
2023/03/28 00:24:23;;;;;;;4.72;1.80;;;;;;;3.88;60.12;101654.00;4194216;28;20033;-67
2023/03/28 00:26:26;;;;;;;4.07;1.20;;;;;;;3.92;60.13;101658.53;4194204;28;20036;-67
2023/03/28 00:28:29;;;;;;;5.55;2.35;;;;;;;3.94;60.38;101662.09;4191181;28;20032;-67
2023/03/28 00:30:33;;;;;;;4.90;1.67;;;;;;;3.93;60.20;101668.00;4179132;28;20041;-68
2023/03/28 00:32:36;;;;;;;5.28;1.60;;;;;;;3.89;60.26;101666.94;4177821;28;20037;-68
2023/03/28 00:34:39;;;;;;;6.20;1.92;;;;;;;3.83;59.90;101659.75;4178796;28;20465;-68
2023/03/28 00:36:42;;;;;;;7.30;2.13;;;;;;;3.80;59.98;101656.13;4171470;28;20407;-68
2023/03/28 00:38:45;;;;;;;5.32;1.55;;;;;;;3.75;60.05;101668.69;4177507;28;20036;-67
2023/03/28 00:40:48;;;;;;;3.97;1.55;;;;;;;3.72;60.65;101665.91;4178759;28;20048;-68
2023/03/28 00:42:52;;;;;;;4.15;1.58;;;;;;;3.71;60.43;101665.81;4178490;28;20037;-68
2023/03/28 00:44:56;;;;;;;3.33;1.52;;;;;;;3.70;60.73;101669.22;4196847;28;20037;-68
2023/03/28 00:47:01;;;;;;;4.50;1.50;;;;;;;3.73;60.43;101674.53;4196537;28;20036;-67
2023/03/28 00:49:09;;;;;;;2.92;1.40;;;;;;;3.76;60.23;101665.31;4197575;28;20094;-68
2023/03/28 00:51:13;;;;;;;5.15;1.45;;;;;;;3.80;60.52;101681.84;4195581;28;20036;-68
2023/03/28 00:53:19;;;;;;;4.28;1.23;;;;;;;3.87;60.19;101670.22;4177135;28;20107;-68
2023/03/28 00:55:28;;;;;;;5.13;1.90;;;;;;;3.88;60.38;101672.00;4196419;28;20067;-68
2023/03/28 00:57:32;;;;;;;5.22;1.50;;;;;;;3.90;60.18;101672.97;4179032;28;20453;-68
2023/03/28 00:59:37;;;;;;;2.72;1.15;;;;;;;3.89;60.18;101676.38;4179761;28;20041;-68
2023/03/28 01:01:39;;;;;;;;;;;;;;;3.80;60.79;101676.69;4190050;28;20555;-67
2023/03/28 01:03:51;;;;;;;5.05;1.63;;;;;;;3.76;60.94;101673.03;4189117;28;19928;-67
2023/03/28 01:05:55;;;;;;;2.85;1.63;;;;;;;3.69;60.87;101668.31;4193349;28;20052;-67
2023/03/28 01:08:12;;;;;;;5.18;1.70;;;;;;;3.59;60.85;101676.25;4177049;28;20056;-67
2023/03/28 01:10:15;;;;;;;5.40;1.73;;;;;;;3.57;60.33;101675.28;4195232;28;20040;-67
2023/03/28 01:12:19;;;;;;;5.32;1.65;;;;;;;3.56;60.62;101670.91;4179303;28;20383;-67
2023/03/28 01:14:26;;;;;;;3.58;1.42;;;;;;;3.56;60.73;101674.34;4163017;28;20483;-67
2023/03/28 01:16:31;;;;;;;2.75;1.30;;;;;;;3.60;60.70;101676.34;4177904;28;20060;-67
2023/03/28 01:18:40;;;;;;;5.07;1.38;;;;;;;3.67;61.07;101675.03;4197441;28;20098;-67
2023/03/28 01:21:11;;;;;;;3.75;1.77;;;;;;;3.72;61.26;101670.19;4178342;28;20029;-67
2023/03/28 01:24:01;;;;;;;5.05;1.98;;;;;;;3.55;60.75;101677.75;4170726;28;20041;-67
2023/03/28 01:26:45;;;;;;;4.55;1.67;;;;;;;3.51;61.13;101683.47;4178340;28;20526;-67
2023/03/28 01:29:15;;;;;;;7.68;2.58;;;;;;;3.44;60.77;101687.34;4172010;28;20037;-66
2023/03/28 01:31:45;;;;;;;4.45;1.80;;;;;;;3.42;61.13;101688.94;4175156;28;20145;-67
2023/03/28 01:34:39;;;;;;;8.52;1.70;;;;;;;3.38;61.57;101693.78;4193180;28;20051;-67
2023/03/28 01:37:22;;;;;;;5.63;1.73;;;;;;;3.40;61.55;101698.25;4180773;28;20420;-66
2023/03/28 01:39:40;;;;;;;5.82;1.77;;;;;;;3.38;60.99;101686.97;4139059;28;20075;-66
2023/03/28 01:41:47;;;;;;;;;;;;;;;3.20;61.77;101693.50;4170025;28;20184;-66
2023/03/28 01:43:59;;;;;;;6.75;1.73;;;;;;;3.20;61.52;101689.25;4160606;28;19937;-67
2023/03/28 01:46:08;;;;;;;5.45;1.55;;;;;;;3.23;61.48;101697.16;4177749;28;20370;-67
2023/03/28 01:48:21;;;;;;;7.03;1.92;;;;;;;3.23;61.22;101691.16;4193025;28;20033;-67
2023/03/28 01:50:30;;;;;;;6.97;1.73;;;;;;;3.23;61.34;101693.72;4191059;28;20055;-67
2023/03/28 01:52:42;;;;;;;5.82;1.77;;;;;;;3.18;61.90;101689.94;4193979;28;20516;-67
2023/03/28 01:54:54;;;;;;;4.65;2.03;;;;;;;3.10;62.13;101690.34;4161509;28;20136;-67
2023/03/28 01:57:05;;;;;;;3.67;1.55;;;;;;;3.11;62.08;101699.84;4175198;28;20099;-67
2023/03/28 01:59:17;;;;;;;8.48;1.80;;;;;;;3.10;62.10;101695.47;4181686;28;20033;-67
2023/03/28 02:01:58;;;;;;;7.57;2.58;;;;;;;3.07;62.54;101702.13;4146792;28;20060;-67
2023/03/28 02:04:05;;;;;;;7.10;2.03;;;;;;;3.09;62.62;101701.41;4180245;28;20037;-67
2023/03/28 02:06:33;;;;;;;3.10;1.77;;;;;;;3.13;61.75;101690.53;4180675;28;20151;-68
2023/03/28 02:08:41;;;;;;;6.15;1.73;;;;;;;3.18;61.78;101698.53;4198579;28;20105;-67
2023/03/28 02:10:58;;;;;;;5.40;1.80;;;;;;;3.21;62.42;101697.84;4196575;28;20036;-68
2023/03/28 02:13:35;;;;;;;5.57;2.03;;;;;;;3.27;62.28;101694.00;4167310;28;20052;-67
2023/03/28 02:15:59;;;;;;;3.72;1.60;;;;;;;3.33;61.91;101698.66;4195979;28;20082;-67
2023/03/28 02:18:19;;;;;;;7.78;2.13;;;;;;;3.39;62.11;101692.97;4195426;28;20098;-68
2023/03/28 02:20:32;;;;;;;6.90;1.83;;;;;;;3.41;62.70;101694.88;4178606;28;20041;-68
2023/03/28 02:22:48;;;;;;;4.13;1.80;;;;;;;3.38;62.69;101692.09;4194988;28;20473;-67
2023/03/28 02:25:06;;;;;;;7.88;1.80;;;;;;;3.37;62.30;101699.72;4198568;28;20060;-67
2023/03/28 02:27:12;;;;;;;5.45;1.80;;;;;;;3.31;62.48;101689.94;4199660;28;20037;-67
2023/03/28 02:29:32;;;;;;;5.70;1.80;;;;;;;3.36;62.14;101693.69;4180691;28;20044;-67
2023/03/28 02:32:06;;;;;;;5.55;1.73;;;;;;;3.37;62.01;101692.88;4175946;28;20040;-67
2023/03/28 02:34:09;;;;;;;4.50;1.77;;;;;;;3.36;62.22;101687.66;4178181;28;20135;-68
2023/03/28 02:36:24;;;;;;;6.53;2.17;;;;;;;3.38;62.02;101692.09;4179636;28;20487;-67
2023/03/28 02:38:39;;;;;;;2.78;1.52;;;;;;;3.36;62.51;101688.56;4195380;28;20041;-67
2023/03/28 02:40:53;;;;;;;6.13;1.90;;;;;;;3.28;61.93;101689.75;4163591;28;20056;-67
2023/03/28 02:43:30;;;;;;;6.57;2.50;;;;;;;3.29;61.72;101691.53;4196773;28;20037;-67
2023/03/28 02:45:52;;;;;;;5.78;1.90;;;;;;;3.27;61.98;101687.97;4177524;28;20312;-67
2023/03/28 02:48:06;;;;;;;6.40;2.20;;;;;;;3.24;62.10;101688.69;4196913;28;20501;-67
2023/03/28 02:50:24;;;;;;;6.57;1.88;;;;;;;3.25;62.57;101694.69;4194517;28;20473;-67
2023/03/28 02:52:36;;;;;;;4.43;1.60;;;;;;;3.24;62.89;101687.75;4180001;28;20040;-67
2023/03/28 02:54:46;;;;;;;3.10;1.70;;;;;;;3.24;61.91;101690.34;4179368;28;20036;-67
2023/03/28 02:57:27;;;;;;;3.00;1.88;;;;;;;3.22;62.35;101695.38;4183673;28;20045;-67
2023/03/28 02:59:36;;;;;;;3.88;1.65;;;;;;;3.21;61.74;101687.56;4178745;28;20037;-67
2023/03/28 03:01:40;;;;;;;5.07;2.00;;;;;;;3.20;62.16;101693.50;4180346;28;20060;-67
2023/03/28 03:03:43;;;;;;;3.55;1.67;;;;;;;3.19;62.15;101700.31;4180791;28;20124;-67
2023/03/28 03:05:46;;;;;;;3.88;2.72;;;;;;;3.16;62.09;101691.53;4162980;28;20041;-67
2023/03/28 03:07:50;;;;;;;5.20;2.00;;;;;;;3.16;62.54;101683.84;4187660;28;20041;-67
2023/03/28 03:09:53;;;;;;;3.72;2.00;;;;;;;3.16;62.27;101695.00;4178949;28;20120;-67
2023/03/28 03:11:56;;;;;;;7.53;2.25;;;;;;;3.11;62.39;101697.28;4196376;28;20071;-67
2023/03/28 03:14:00;;;;;;;5.95;2.10;;;;;;;3.14;62.30;101692.31;4174239;28;20499;-67
2023/03/28 03:16:05;;;;;;;5.43;1.60;;;;;;;3.14;62.79;101697.47;4180880;28;20096;-67
2023/03/28 03:18:08;;;;;;;5.63;1.73;;;;;;;3.17;62.63;101690.72;4191216;28;20029;-67
2023/03/28 03:20:11;;;;;;;6.93;2.03;;;;;;;3.20;62.25;101690.91;4178987;28;20495;-67
2023/03/28 03:22:14;;;;;;;5.07;1.80;;;;;;;3.19;62.25;101686.59;4180678;28;20513;-67
2023/03/28 03:24:25;;;;;;;6.50;1.85;;;;;;;3.18;62.95;101688.25;4180034;28;20045;-67
2023/03/28 03:26:28;;;;;;;10.05;2.70;;;;;;;3.17;62.62;101680.44;4178355;28;20120;-67
2023/03/28 03:28:35;;;;;;;4.22;1.92;;;;;;;3.16;62.25;101683.84;4179535;28;20463;-67
2023/03/28 03:30:41;;;;;;;4.18;1.88;;;;;;;3.19;62.52;101684.91;4180821;28;20037;-67
2023/03/28 03:32:54;;;;;;;4.88;2.03;;;;;;;3.20;62.58;101685.78;4193893;28;20043;-67
2023/03/28 03:35:00;;;;;;;3.95;1.95;;;;;;;3.20;62.49;101681.56;4178004;28;20128;-67
2023/03/28 03:37:03;;;;;;;4.47;1.83;;;;;;;3.18;62.83;101688.25;4192125;28;20064;-67
2023/03/28 03:39:07;;;;;;;5.22;1.80;;;;;;;3.15;62.56;101685.50;4176703;28;20621;-67
2023/03/28 03:41:10;;;;;;;3.80;1.90;;;;;;;3.14;62.47;101684.63;4179983;28;20491;-67
2023/03/28 03:43:13;;;;;;;3.08;1.55;;;;;;;3.15;62.71;101693.19;4180074;28;20067;-67
2023/03/28 03:45:16;;;;;;;8.80;2.05;;;;;;;3.14;62.84;101681.16;4179762;28;20041;-67
2023/03/28 03:47:21;;;;;;;7.13;2.03;;;;;;;3.11;62.31;101679.28;4180492;28;20127;-67
2023/03/28 03:49:25;;;;;;;5.50;2.17;;;;;;;3.07;62.83;101685.00;4177536;28;20041;-67
2023/03/28 03:51:28;;;;;;;5.95;1.85;;;;;;;3.04;63.24;101684.81;4179580;28;20041;-67
2023/03/28 03:53:33;;;;;;;5.45;1.88;;;;;;;2.94;62.98;101678.19;4195676;28;20036;-67
2023/03/28 03:55:45;;;;;;;7.97;3.03;;;;;;;2.90;63.95;101683.03;4179583;28;20033;-68
2023/03/28 03:57:47;;;;;;;6.28;2.20;;;;;;;2.89;63.63;101682.16;4178556;28;20064;-67
2023/03/28 03:59:51;;;;;;;4.82;1.70;;;;;;;2.88;63.59;101682.94;4179268;28;20037;-67
2023/03/28 04:01:55;;;;;;;2.67;1.48;;;;;;;2.85;64.07;101692.09;4174486;28;20057;-67
2023/03/28 04:04:15;;;;;;;5.32;2.13;;;;;;;2.87;63.62;101695.69;4180326;28;20045;-67
2023/03/28 04:06:50;;;;;;;7.55;2.53;;;;;;;2.89;63.85;101691.53;4156497;28;20056;-66
2023/03/28 04:08:53;;;;;;;9.30;2.35;;;;;;;2.92;63.12;101699.41;4187419;28;20300;-66
2023/03/28 04:11:13;;;;;;;7.78;2.05;;;;;;;2.93;63.35;101696.06;4194734;28;20060;-66
2023/03/28 04:13:18;;;;;;;11.90;3.20;;;;;;;2.87;63.12;101698.25;4178219;28;20431;-66
2023/03/28 04:15:27;;;;;;;11.52;2.58;;;;;;;2.88;63.62;101700.03;4179138;28;20040;-66
2023/03/28 04:17:49;;;;;;;9.63;2.72;;;;;;;2.87;63.49;101698.25;4197113;28;20498;-66
2023/03/28 04:19:56;;;;;;;7.03;2.13;;;;;;;2.86;63.24;101709.31;4180162;28;20055;-66
2023/03/28 04:22:03;;;;;;;11.38;2.72;;;;;;;2.84;63.09;101706.63;4195530;28;20036;-66
2023/03/28 04:24:06;;;;;;;4.57;2.40;;;;;;;2.87;63.15;101708.53;4162269;28;20099;-66
2023/03/28 04:26:19;;;;;;;10.88;3.63;;;;;;;2.75;63.40;101711.19;4178258;28;20037;-66
2023/03/28 04:28:29;;;;;;;6.25;2.58;;;;;;;2.75;63.24;101712.06;4178892;28;20041;-66
2023/03/28 04:30:40;;;;;;;7.22;2.67;;;;;;;2.82;63.44;101707.31;4177860;28;20120;-66
2023/03/28 04:33:03;;;;;;;6.03;2.10;;;;;;;2.78;63.90;101716.50;4191737;28;20135;-66
2023/03/28 04:35:15;;;;;;;4.70;2.13;;;;;;;2.73;63.79;101711.06;4173645;28;20041;-66
2023/03/28 04:37:20;;;;;;;5.32;2.55;;;;;;;2.72;64.64;101718.69;4162447;28;20073;-66
2023/03/28 04:39:28;;;;;;;5.60;2.60;;;;;;;2.76;63.96;101715.50;4186496;28;20032;-66
2023/03/28 04:41:45;;;;;;;6.35;2.38;;;;;;;2.76;63.55;101718.06;4190618;28;20036;-67
2023/03/28 04:44:11;;;;;;;5.78;2.15;;;;;;;2.78;63.47;101717.38;4143604;28;20071;-66
2023/03/28 04:46:20;;;;;;;7.43;1.98;;;;;;;2.77;63.18;101715.63;4175443;28;20041;-66
2023/03/28 04:48:25;;;;;;;8.30;2.67;;;;;;;2.77;63.38;101720.75;4174486;28;20119;-66
2023/03/28 04:50:29;;;;;;;6.35;2.20;;;;;;;2.78;63.58;101724.22;4177695;28;20096;-65
2023/03/28 04:52:32;;;;;;;5.72;1.83;;;;;;;2.72;63.34;101723.81;4194913;28;20039;-66
2023/03/28 04:54:35;;;;;;;6.70;2.30;;;;;;;2.74;63.59;101729.94;4176240;28;20040;-66
2023/03/28 04:56:44;;;;;;;7.32;2.30;;;;;;;2.70;63.86;101735.66;4157830;28;20037;-66
2023/03/28 04:58:51;;;;;;;4.78;2.08;;;;;;;2.68;63.50;101735.53;4184416;28;20111;-66
2023/03/28 05:00:55;;;;;;;11.57;2.63;;;;;;;2.69;63.64;101742.47;4177011;28;20040;-67
2023/03/28 05:03:17;;;;;;;10.90;2.70;;;;;;;2.67;63.40;101741.44;4166831;28;20069;-66
2023/03/28 05:05:32;;;;;;;12.73;2.58;;;;;;;2.66;63.81;101747.41;4174971;28;20041;-67
2023/03/28 05:07:35;;;;;;;7.97;2.63;;;;;;;2.61;64.41;101739.41;4177735;28;20044;-67
2023/03/28 05:09:39;;;;;;;9.18;3.13;;;;;;;2.60;64.52;101747.88;4192144;28;20037;-66
2023/03/28 05:11:42;;;;;;;7.80;2.58;;;;;;;2.52;64.90;101753.28;4156949;28;20052;-66
2023/03/28 05:13:45;;;;;;;13.23;2.92;;;;;;;2.51;65.57;101741.22;4176121;28;20063;-66
2023/03/28 05:15:59;;;;;;;17.98;3.10;;;;;;;2.48;65.87;101751.28;4192011;22;20100;-69
2023/03/28 05:18:25;;;;;;;8.57;2.42;;;;;;;2.42;65.99;101751.75;4177935;28;20037;-69
2023/03/28 05:20:30;;;;;;;9.13;2.85;;;;;;;2.41;66.26;101747.41;4160317;28;20038;-69
2023/03/28 05:22:35;;;;;;;9.57;2.50;;;;;;;2.40;66.65;101749.09;4174562;28;20044;-70
2023/03/28 05:24:38;;;;;;;;;;;;;;;2.36;66.63;101761.59;4177505;28;20043;-69
2023/03/28 05:26:47;;;;;;;11.95;2.50;;;;;;;2.37;66.66;101759.16;4176917;28;19920;-70
2023/03/28 05:28:56;;;;;;;10.70;2.92;;;;;;;2.42;66.08;101764.59;4173744;28;20380;-69
2023/03/28 05:30:59;;;;;;;12.57;2.97;;;;;;;2.41;66.47;101775.63;4176560;28;20043;-69
2023/03/28 05:33:02;;;;;;;6.75;2.78;;;;;;;2.42;66.09;101768.06;4192614;28;20074;-69
2023/03/28 05:35:08;;;;;;;18.13;6.60;;;;;;;2.39;66.40;101767.81;4174883;28;20762;-69
2023/03/28 05:37:11;;;;;;;;;;;;;;;2.29;66.81;101775.69;4175299;28;20040;-70
2023/03/28 05:39:30;;;;;;;17.75;3.25;;;;;;;2.30;67.21;101777.47;4179960;28;21461;-69
2023/03/28 05:41:38;;;;;;;5.85;2.88;;;;;;;2.36;67.14;101783.03;4181876;28;22320;-69
2023/03/28 05:43:41;;;;;;;7.30;2.38;;;;;;;2.69;69.43;101783.56;4178152;28;20041;-72
2023/03/28 05:45:52;;;;;;;10.07;2.95;;;;;;;3.81;74.37;101787.38;4170984;28;20051;-72
2023/03/28 05:47:57;;;;;;;;;;;;;;;4.55;72.26;101786.75;4174167;28;20502;-73
2023/03/28 05:50:00;;;;;;;11.95;2.78;;;;;;;5.16;68.84;101778.28;4175373;28;19949;-63
2023/03/28 05:52:05;;;;;;;6.88;3.10;;;;;;;5.08;63.54;101776.94;4166650;28;20049;-67
2023/03/28 05:54:09;;;;;;;12.20;2.63;;;;;;;4.64;62.81;101772.66;4183670;28;20052;-68
2023/03/28 05:56:13;;;;;;;10.23;3.20;;;;;;;4.16;63.09;101780.06;4189506;28;20119;-68
2023/03/28 05:58:16;;;;;;;9.73;3.28;;;;;;;3.83;63.64;101785.78;4172788;28;20041;-68
2023/03/28 06:00:19;;;;;;;8.35;3.03;;;;;;;3.48;63.66;101788.69;4192596;28;20081;-68
2023/03/28 06:02:28;;;;;;;8.05;3.35;;;;;;;3.09;63.89;101791.31;4192941;28;20040;-67
2023/03/28 06:04:32;;;;;;;9.43;3.28;;;;;;;2.99;64.44;101791.50;4170308;28;20045;-68
2023/03/28 06:06:35;;;;;;;9.43;3.47;;;;;;;2.96;64.18;101791.31;4190367;28;20413;-68
2023/03/28 06:08:40;;;;;;;;;;;;;;;2.91;64.31;101795.25;4173323;28;20462;-68
2023/03/28 06:10:44;;;;;;;12.07;3.10;;;;;;;2.92;65.26;101802.16;4174868;28;19941;-67
2023/03/28 06:12:57;;;;;;;12.88;3.38;;;;;;;2.95;64.48;101803.28;4190320;28;20029;-68
2023/03/28 06:15:00;;;;;;;16.42;4.25;;;;;;;2.95;64.57;101804.97;4179790;28;20048;-68
2023/03/28 06:17:08;;;;;;;14.23;3.65;;;;;;;2.96;64.72;101802.50;4187126;28;20084;-68
2023/03/28 06:19:20;;;;;;;12.15;3.00;;;;;;;2.98;64.76;101807.72;4171922;28;20045;-69
2023/03/28 06:21:29;;;;;;;11.43;3.95;;;;;;;3.03;64.63;101810.59;4174037;28;20429;-68
2023/03/28 06:23:36;;;;;;;10.27;3.00;;;;;;;3.06;64.61;101806.53;4175933;28;20481;-68
2023/03/28 06:25:39;;;;;;;10.30;2.70;;;;;;;3.10;64.15;101808.53;4169982;28;20061;-68
2023/03/28 06:27:42;;;;;;;10.43;3.60;;;;;;;3.13;63.86;101806.16;4177323;28;20033;-68
2023/03/28 06:29:46;;;;;;;10.18;2.95;;;;;;;3.19;63.90;101809.94;4160179;28;20053;-68
2023/03/28 06:31:49;;;;;;;11.25;3.22;;;;;;;3.21;63.49;101805.78;4176068;28;20044;-67
2023/03/28 06:33:53;;;;;;;11.63;5.70;;;;;;;3.24;62.88;101814.59;4188784;28;20040;-67
2023/03/28 06:35:57;;;;;;;8.45;2.92;;;;;;;3.40;62.83;101808.78;4173714;28;20039;-67
2023/03/28 06:38:04;;;;;;;7.22;2.72;;;;;;;3.44;61.99;101810.72;4173926;28;20569;-68
2023/03/28 06:40:08;;;;;;;8.48;2.78;;;;;;;3.71;66.09;101814.97;4158765;28;20034;-68
2023/03/28 06:42:11;;;;;;;6.27;2.40;;;;;;;4.13;67.77;101811.69;4192538;28;20036;-67
2023/03/28 06:44:24;;;;;;;10.43;4.45;;;;;;;4.08;64.00;101817.31;4174640;28;20037;-67
2023/03/28 06:46:45;;;;;;;8.70;2.42;;;;;;;3.99;63.20;101809.94;4172149;28;20083;-67
2023/03/28 06:48:48;;;;;;;8.70;2.13;;;;;;;3.88;62.53;101818.63;4177887;28;20064;-67
2023/03/28 06:51:03;;;;;;;4.63;2.10;;;;;;;3.83;62.04;101811.50;4193599;28;20036;-67
2023/03/28 06:53:06;;;;;;;7.35;2.22;;;;;;;3.84;61.71;101812.41;4193210;28;20048;-67
2023/03/28 06:55:10;;;;;;;11.20;2.90;;;;;;;3.83;61.93;101818.34;4195591;28;20036;-67
2023/03/28 06:57:12;;;;;;;13.23;2.83;;;;;;;3.84;61.32;101818.44;4177445;28;20620;-67
2023/03/28 06:59:16;;;;;;;4.82;2.05;;;;;;;3.87;60.97;101815.19;4176507;28;20124;-67
2023/03/28 07:01:24;;;;;;;8.30;2.15;;;;;;;3.92;61.48;101818.03;4173476;28;20450;-68
2023/03/28 07:03:38;;;;;;;10.60;3.22;;;;;;;4.09;60.47;101814.84;4176013;28;20075;-61
2023/03/28 07:05:42;;;;;;;9.93;3.08;;;;;;;4.08;60.36;101822.47;4195322;28;20033;-66
2023/03/28 07:07:45;;;;;;;5.07;2.60;;;;;;;4.18;60.76;101814.53;4173378;28;20037;-65
2023/03/28 07:09:50;;;;;;;7.13;2.22;;;;;;;4.23;60.77;101825.97;4192536;28;20036;-63
2023/03/28 07:11:53;;;;;;;;;;;;;;;4.15;60.46;101830.66;4190069;28;20071;-63
2023/03/28 07:13:57;;;;;;;5.50;1.90;;;;;;;4.19;60.62;101829.16;4177528;28;19939;-67
2023/03/28 07:16:01;;;;;;;5.68;2.40;;;;;;;4.44;58.92;101823.84;4191001;28;20037;-67
2023/03/28 07:18:05;;;;;;;10.18;2.60;;;;;;;4.51;57.86;101825.09;4152986;28;20498;-66
2023/03/28 07:20:11;;;;;;;12.48;2.63;;;;;;;4.46;58.22;101819.69;4186362;28;20032;-65
2023/03/28 07:22:14;;;;;;;9.80;2.53;;;;;;;4.59;57.77;101828.16;4192539;28;20037;-66
2023/03/28 07:24:17;;;;;;;9.88;2.75;;;;;;;4.52;57.52;101832.91;4192522;28;20045;-65
2023/03/28 07:26:34;;;;;;;6.88;2.85;;;;;;;4.43;57.91;101828.91;4187433;28;20040;-66
2023/03/28 07:28:37;;;;;;;9.20;2.35;;;;;;;4.45;58.05;101835.91;4195784;28;20036;-65
2023/03/28 07:30:41;;;;;;;15.63;4.65;;;;;;;4.54;58.12;101835.59;4176316;28;20033;-66
2023/03/28 07:32:43;;;;;;;11.73;3.10;;;;;;;4.57;57.94;101834.88;4192084;28;20051;-65
2023/03/28 07:35:02;;;;;;;11.93;2.47;;;;;;;4.63;57.79;101837.84;4178609;28;20052;-66
2023/03/28 07:37:07;;;;;;;6.32;2.83;;;;;;;4.78;57.41;101843.03;4173976;28;20045;-65
2023/03/28 07:39:42;;;;;;;8.13;2.50;;;;;;;4.85;57.03;101847.78;4174997;28;20090;-66
2023/03/28 07:41:50;;;;;;;11.95;3.20;;;;;;;4.84;57.27;101849.44;4176254;28;20057;-64
2023/03/28 07:43:53;;;;;;;8.30;2.72;;;;;;;4.91;57.53;101853.28;4176287;28;20056;-65
2023/03/28 07:45:59;;;;;;;9.38;2.92;;;;;;;5.01;57.34;101847.88;4191054;28;20417;-68
2023/03/28 07:48:03;;;;;;;11.55;2.70;;;;;;;5.14;57.08;101841.75;4193651;28;20887;-67
2023/03/28 07:50:07;;;;;;;7.95;2.72;;;;;;;5.19;56.64;101850.63;4189239;28;20089;-67
2023/03/28 07:52:13;;;;;;;8.68;2.47;;;;;;;5.22;56.85;101850.81;4192958;28;20083;-67
2023/03/28 07:54:18;;;;;;;11.07;2.85;;;;;;;5.07;56.59;101850.81;4179027;28;20037;-68
2023/03/28 07:56:22;;;;;;;7.20;2.55;;;;;;;5.05;56.59;101855.00;4179850;28;20128;-66
2023/03/28 07:58:41;;;;;;;10.75;3.10;;;;;;;5.11;56.79;101857.03;4175085;28;20074;-67
2023/03/28 08:00:45;;;;;;;5.95;2.35;;;;;;;5.18;56.69;101854.03;4190083;28;20107;-68
2023/03/28 08:03:18;;;;;;;10.68;2.83;;;;;;;5.27;56.61;101863.09;4172731;28;20568;-66
2023/03/28 08:05:25;;;;;;;8.80;2.53;;;;;;;5.38;56.64;101864.59;4176869;28;20045;-68
2023/03/28 08:07:29;;;;;;;9.35;2.65;;;;;;;5.48;56.74;101863.47;4176651;28;20083;-68
2023/03/28 08:09:32;;;;;;;8.18;2.10;;;;;;;5.58;56.80;101865.75;4175548;28;20064;-66
2023/03/28 08:11:55;;;;;;;9.60;2.85;;;;;;;5.67;56.60;101865.41;4177019;28;20076;-66
2023/03/28 08:14:00;;;;;;;8.82;2.33;;;;;;;5.72;56.21;101866.53;4191047;28;20371;-66
2023/03/28 08:16:05;;;;;;;9.50;2.35;;;;;;;5.73;55.97;101865.75;4156099;28;20036;-65
2023/03/28 08:18:08;;;;;;;11.52;3.05;;;;;;;5.81;57.07;101864.50;4176151;28;20598;-67
2023/03/28 08:20:12;;;;;;;13.95;3.47;;;;;;;6.06;57.67;101855.53;4189115;28;20087;-66
2023/03/28 08:22:35;;;;;;;7.63;2.80;;;;;;;6.28;56.85;101847.28;4194386;28;20043;-66
2023/03/28 08:25:01;;;;;;;8.73;2.50;;;;;;;6.26;56.27;101849.78;4145167;28;20218;-66
2023/03/28 08:27:04;;;;;;;9.68;2.90;;;;;;;6.33;55.15;101851.00;4169473;28;21027;-66
2023/03/28 08:29:07;;;;;;;16.70;2.85;;;;;;;6.34;55.15;101854.47;4195899;28;20068;-66
2023/03/28 08:31:14;;;;;;;5.25;2.55;;;;;;;6.33;54.86;101851.00;4164443;28;20052;-66
2023/03/28 08:33:21;;;;;;;15.85;3.20;;;;;;;6.44;54.09;101855.06;4190768;28;20042;-66
2023/03/28 08:35:25;;;;;;;12.85;3.10;;;;;;;6.45;53.95;101850.75;4179815;28;20041;-66
2023/03/28 08:37:31;;;;;;;7.93;2.10;;;;;;;6.56;53.89;101853.94;4176181;28;20033;-66
2023/03/28 08:39:40;;;;;;;9.75;3.30;;;;;;;6.54;53.67;101856.44;4184291;28;20037;-66
2023/03/28 08:42:04;;;;;;;9.52;2.30;;;;;;;6.52;53.02;101860.63;4171991;28;20358;-66
2023/03/28 08:44:20;;;;;;;8.13;3.00;;;;;;;6.59;53.63;101856.69;4190387;28;20570;-66
2023/03/28 08:46:25;;;;;;;10.00;2.80;;;;;;;6.69;53.82;101858.03;4181234;28;20119;-66
2023/03/28 08:48:34;;;;;;;13.30;3.08;;;;;;;6.81;52.65;101861.28;4176007;28;20419;-66
2023/03/28 08:50:43;;;;;;;8.98;2.42;;;;;;;6.89;53.06;101859.06;4166345;28;20057;-65
2023/03/28 08:52:47;;;;;;;9.30;2.03;;;;;;;6.95;53.01;101860.28;4183747;28;20075;-65
2023/03/28 08:54:57;;;;;;;9.60;2.85;;;;;;;7.06;53.18;101859.97;4176518;28;20132;-65
2023/03/28 08:57:04;;;;;;;10.43;2.90;;;;;;;7.14;52.91;101856.94;4178682;28;20033;-65
2023/03/28 08:59:11;;;;;;;6.05;2.17;;;;;;;7.15;52.94;101865.59;4164017;28;20053;-68
2023/03/28 09:01:15;;;;;;;17.90;3.78;;;;;;;7.16;52.95;101860.50;4165732;28;20539;-68
2023/03/28 09:03:21;;;;;;;13.32;3.42;;;;;;;6.95;52.69;101865.47;4170924;28;20037;-68
2023/03/28 09:05:37;;;;;;;5.93;2.08;;;;;;;6.79;51.32;101868.03;4178080;28;20040;-69
2023/03/28 09:07:53;;;;;;;4.88;1.75;;;;;;;6.89;50.77;101853.91;4182434;28;20033;-68
2023/03/28 09:10:09;;;;;;;11.70;2.30;;;;;;;6.98;48.81;101857.00;4173585;28;20120;-68
2023/03/28 09:12:39;;;;;;;6.70;1.77;;;;;;;7.07;49.10;101860.03;4193393;28;20094;-65
2023/03/28 09:15:03;;;;;;;4.85;1.52;;;;;;;7.14;47.04;101858.63;4207672;28;20405;-66
2023/03/28 09:17:13;;;;;;;8.52;1.63;;;;;;;7.44;45.49;101856.69;4186086;28;20041;-67
2023/03/28 09:19:32;;;;;;;6.00;1.92;;;;;;;7.30;46.10;101857.72;4176604;28;20546;-71
2023/03/28 09:22:29;;;;;;;8.40;2.15;;;;;;;7.31;46.87;101856.91;4187614;28;20036;-66
2023/03/28 09:24:46;;;;;;;8.13;2.33;;;;;;;7.58;46.95;101844.44;4179280;28;20041;-66
2023/03/28 09:27:01;;;;;;;10.60;2.47;;;;;;;7.62;46.75;101854.16;4179240;28;20091;-67
2023/03/28 09:29:10;;;;;;;9.23;2.00;;;;;;;7.69;46.92;101852.72;4179331;28;20565;-68
2023/03/28 09:31:15;;;;;;;7.32;2.25;;;;;;;7.84;47.43;101855.16;4179111;28;20044;-68
2023/03/28 09:33:27;;;;;;;5.05;1.65;;;;;;;7.77;46.37;101850.50;4187148;28;20037;-68
2023/03/28 09:35:31;;;;;;;6.32;1.38;;;;;;;7.88;45.78;101849.31;4189359;28;20044;-68
2023/03/28 09:37:40;;;;;;;7.47;1.65;;;;;;;8.16;43.96;101838.56;4177903;28;20033;-66
2023/03/28 09:39:51;;;;;;;6.72;2.30;;;;;;;8.20;43.09;101829.22;4158742;28;20503;-66
2023/03/28 09:42:02;;;;;;;8.00;1.80;;;;;;;8.21;43.11;101836.19;4162485;28;20048;-65
2023/03/28 09:44:28;;;;;;;5.30;1.58;;;;;;;8.08;44.56;101826.94;4186988;28;20040;-66
2023/03/28 09:47:11;;;;;;;7.70;2.20;;;;;;;8.00;45.05;101831.78;4129263;28;20043;-65
2023/03/28 09:49:22;;;;;;;7.75;2.17;;;;;;;7.92;44.96;101824.47;4160874;28;20573;-68
2023/03/28 09:51:30;;;;;;;7.18;2.25;;;;;;;7.94;45.33;101823.69;4179437;28;20423;-68
2023/03/28 09:53:36;;;;;;;4.88;1.60;;;;;;;8.04;45.44;101820.75;4196292;28;20487;-67
2023/03/28 09:55:39;;;;;;;8.45;1.83;;;;;;;8.23;45.41;101823.31;4203744;28;20055;-68
2023/03/28 09:58:06;;;;;;;6.38;1.70;;;;;;;8.47;44.67;101826.13;4199111;28;20051;-67
2023/03/28 10:00:29;;;;;;;4.82;1.85;;;;;;;8.54;45.49;101813.53;4194100;28;20033;-67
2023/03/28 10:02:52;;;;;;;8.75;2.63;;;;;;;8.80;45.67;101816.38;4188323;28;20028;-64
2023/03/28 10:04:55;;;;;;;5.80;2.28;;;;;;;8.86;44.98;101815.75;4179707;28;20037;-65
2023/03/28 10:07:26;;;;;;;5.10;1.50;;;;;;;9.02;44.48;101818.19;4179394;28;20036;-65
2023/03/28 10:09:31;;;;;;;5.55;1.80;;;;;;;8.81;44.25;101820.75;4169454;28;20048;-65
2023/03/28 10:11:47;;;;;;;6.50;2.20;;;;;;;8.67;43.70;101819.25;4192565;28;20036;-65
2023/03/28 10:13:54;;;;;;;6.15;1.98;;;;;;;8.58;44.02;101819.72;4169808;28;20040;-65